Timeline UpdatesTrip UpdatesNews PostsPvt PostsTravel TipsAdmin PostsConv PostsFollowed PostsChat RequestsBlog PostsPNR Posts

Disclaimer
Search
 
 
Thu Jul 31, 2014 21:06:23 ISTHomeTrainsΣChainsAtlasPNRForumGalleryNewsFAQTripsMembersLoginFeedback
No Recent News for this Train
Other Trains in the News **new
Latest...
2S avbl b/w mumbai & surat .
Tue Feb 04, 2014 (12:55AM)
⇐ Return Journey: Train# 19024

19023/Mumbai Firozpur Janta Express

Oct 03 2013 (4:40PM)
Change Departure Station:
Change Arrival Station:
Post a Train Travel TipPost a Train Travel Tip **new
Post a Comment/Question/Picture/VideoPost a Comment/Question/Picture/Video
Inaugural Run
Mon Oct 01, 1956
Pantry/Catering
✕ NO Pantry Car
✓ Catering Avbl
Catering from local vendors
RSA - Rake Sharing
No RSA. Independent Rake.
Rake/Coach Composition
LOCO, HCPV, SLR, GS, S-8, S-7, S-6, S-5, S-4, S-3, S-2, S-1, GS, GS(MST), GS, SLR Author: Manish Kr Singh Entry: 640399
Loco
BCT NDLS = GZB WAP#5, NDLS-FZR TKD WDP-4/4B
News    PNR    Forum    Time-Table    Availability    Fare Chart    Map    Arr/Dep History    Trips    Gallery    ΣChains    X/O    Timeline    
Travel Time: 31h 11m    67 halts    Distance: 1425 km    Avg Speed: 45 km/hr
Type: Mail/Express
Zone: WR/Western
Departs @ 15:09 (Avg 31m late)
Platform# ???
SMTWTFS
Palej/PLJ 
Arrives @ 22:20 +1 night (Avg 6m late)
Platform# 1
SMTWTFS
Firozpur Cantt. Junction/FZR 

67 halts. 212 intermediate Stations between Palej and Firozpur Cantt. Junction

Show ALL intermediate Stations  Show Old Time-Table

#CodeStation NameX/OArrivesAvgDepartsAvgHaltPFDay#KmSpeedElevZoneAddress
1BCTMumbai Central (9)  -07:25+141-347.8403mWRMumbai 400008, Maharashtra
2DDRMumbai Dadar Western (6)  07:34+507:37+53m31-341.9536mWRMumbai, Maharashtra
3BVIMumbai Borivali (8)  08:04+608:07+73m41-318.15119mWRMumbai - 400092, Maharashtra
4PLGPalghar (3)O  09:14+1109:16+132m11-261.14219mWRPalghar, Maharashtra
5BORBoisar (3)X  09:32+809:34+92m21-249.93317mWRBoisar Tel.no-02525-266626, Maharashtra
6VGNVangaon (3)XO  09:51+209:52+51m11-240.55311mWRThane, Maharashtra
7DRDDahanu Road (5)X  10:06+210:08+42m11-228.27612mWRDahanu, Maharashtra
8UBRUmbargam Road (3)XO  10:24+410:26+42m11-207.94030mWRUmbergaon, Gujarat
9SJNSanjan (3)X  10:34+410:36+42m11-202.56922mWRSanjan, Gujarat
10BLDBhilad (3)  10:46+510:48+62m21-190.95633mWRBhilad, Gujarat
11VAPIVapi (3)X  11:00+611:02+82m11-179.64827mWRVapi, Gujarat
12UVDUdvada (3)X  11:14+711:16+72m--1-170.16018mWRUdvada, Gujarat
13PADPardi (3)X  11:22+711:24+62m--1-164.13619mWRValsad, Gujarat
14BLValsad (3)X  11:42+011:47+35m21-153.49015mWRValsad, Gujarat
15BIMBilimora Junction (4)X  11:59+812:01+82m11-135.53711mWRBilimora, Gujarat
16AMLAmalsad (3)  12:10+712:12+62m11-129.99412mWRAmalsad, Gujarat
17NVSNavsari (3)  12:22+1312:27+145m11-114.34614mWRNavsari, Gujarat
18MRLMaroli (3)X  12:38+1712:40+172m11-105.92715mWRMaroli, Gujarat
19STSurat (4)X  13:27+613:37+710m11-84.77919mWRSurat 395001, Gujarat
20KIMKim (2)X  13:55+1713:57+162m11-61.15818mWRNH 8, Gujarat
21KSBKosamba Junction (3)  14:05+1814:07+172m11-53.37130mWRKosamba, Gujarat
22PAOPanoli (3)  14:14+1814:16+182m11-45.17729mWRPanoli, Gujarat
23AKVAnkleshwar Junction (4)  14:24+1914:26+192m11-34.83719mWRAnkleshwar, Gujarat
24BHBharuch Junction (5)  14:41+1914:46+215m31-25.48019mWRBharuch, Gujarat
25NIUNabipur (3)14:55+3214:57+322m--1-13.48024mWRNabipur, Gujarat
26PLJ»Palej (4)»X  15:07+3215:09+312m--10.08329mWRPalej, Gujarat
27MYGMiyagam Karjan (2)  15:20+3215:22+312m2115.35429mWRKarjan, Gujarat
28BRCVadodara Junction (7)X  15:55+3116:05+3210m6145.17336mWRVadodara 390005, Gujarat
29SMLASamlaya Junction (3)  16:27+5416:29+532m--171.77567mWRVadodara, Gujarat
30DRLDerol  16:48+5516:50+552m--195.44381mWRKalol, Gujarat
31GDAGodhra Junction (3)  17:23+2417:28+245m21119.064122mWRGodhra, Gujarat
32SATSant Road (2)  17:47+3717:49+362m--1139.471169mWROrwara, Gujarat
33PPDPiplod Junction  17:59+4018:01+392m--1151.279209mWRPiplod, Gujarat
34LMKLimkheda  18:07+4318:09+422m--1159.171205mWRLimkheda, Gujarat
35DHDDahod (3)  18:37+3918:42+385m--1192.199313mWRDahod, Gujarat
36MGNMeghnagar (3)X  19:02+4619:04+462m--1225.260317mWRJhabua, Madhya Pradesh
37THDRThandla Road (2)X  19:12+4619:14+452m--1233.272317mWRJhabua, Madhya Pradesh
38BMIBamnia (2)X  19:37+4819:39+482m--1260.848392mWRBamnia, Madhya Pradesh
39RTMRatlam Junction (7)X  20:35+3320:55+2820m51305.575495mWRRatlam, Madhya Pradesh
40KUHKhachrod (2)X  21:17+3021:19+302m--1333.120497mWRUjjain, Madhya Pradesh
41NADNagda Junction (4)X  22:00+722:05+95m--1346.968468mWRNagda, Madhya Pradesh
42MEPMahidpur Road  22:20+1822:22+182m--1364.090493mWCRGogapur, Madhya Pradesh
43VMAVikramgarh Alot (2)X  22:38+1822:40+182m21387.982443mWCRKota Division, Madhya Pradesh
44CMUChau Mahla (3)  22:56+2122:58+222m21409.766426mWCRJhalawar, Rajasthan
45SVASuwasra (2)  23:12+2023:14+212m--1425.158450mWCRSuwasra, Madhya Pradesh
46SGZShamgarh (3)  23:28+1923:30+202m--1438.569463mWCRMandsaur, Madhya Pradesh
47BWMBhawani Mandi (3)  23:59+1500:01+182m--1472.071384mWCRBhawani Mandi, Madhya Pradesh
48JHWJhalawar Road (3)X  00:15+1700:17+182m--2488.553361mWCRJhalawar City, Rajasthan
49RMARamganj Mandi Junction (3)X  00:31+1300:33+162m--2500.982358mWCRRamganj Mandi, Rajasthan
50KOTAKota Junction (5)X  01:25+2601:35+2810m12572.171256mWCRKota, Rajasthan
51LKELakheri (3)X  02:26+2502:28+252m--2632.755228mWCRBundi, Rajasthan
52IDGIndargarh Sumerganj Mandi (2)X  02:40+2502:42+262m--2643.766247mWCRIndargarh, Rajasthan
53SWMSawai Madhopur Junction (4)X  03:15+2503:20+245m--2679.972266mWCRSawai Madhopur, Rajasthan
54MLZMalarna  03:45+2403:47+282m--2710.144236mWCRSawai Madhopur, Rajasthan
55NNWNarayanpur Tatwara (2)XO  04:10+2004:12+582m--2726.912256mWCRSawai Madhopur, Rajasthan
56GGCGangapur City (3)O  05:40+1005:45+235m12743.960270mWCRGangapur, Rajasthan
57SMBJShri Mahabirji (3)  06:19+1806:20+211m--2777.947240mWCRKarauli, Rajasthan
58HANHindaun City (2)  06:33+1906:35+232m--2788.179230mWCRKarauli, Rajasthan
59FSPFateh Singhpura  06:45+2706:47+262m--2801.366223mWCRState Highway 1, Rajasthan
60BXNBayana Junction (3)  07:05+2707:10+305m--2821.050198mWCRBayana, Rajasthan
61BTEBharatpur Junction (5)X  08:00+1408:05+295m--2863.022174mWCRBharatpur, Rajasthan
62MTJMathura Junction (10)  09:35+009:45+310m42896.585179mNCRMathura, Uttar Pradesh
63CHJChata (4)X  10:07+810:09+92m--2927.756185mNCRChhata, Uttar Pradesh
64KSVKosi Kalan (3)X  10:20+810:22+92m12938.055189mNCRKosi Kalan, Uttar Pradesh
65PWLPalwal (8)X  11:08-111:10+42m--2980.471200mNRPalwal, Haryana
66BVHBallabgarh (5)  11:28+911:30+92m--21001.644203mNRFaridabad, Haryana
67FDBFaridabad (4)X  11:41+1011:43+102m221009.756206mNRold Faridabad, Haryana
68TKDTuglakabad (4)  11:55+1311:57+132m--21020.840213mNRNear Tughlakabad Metro Station, Delhi NCT
69OKAOkhla (4)X  12:06+1312:08+132m--21026.822221mNRIshwar Nagar Mathura Road, Delhi NCT
70NZMDelhi Hazrat Nizamuddin (7)  12:18+1112:20+112m321030.518209mNRNizamuddin East/Sarai KaleKhan Bus Terminal, Delhi NCT
71NDLSNew Delhi (16)X  12:45+1113:15+1030m121037.814215mNRNew Delhi, Delhi NCT
72DKZDelhi KishanGanj (2)  13:32+1713:34+172m--21041.728220mNRSarai Rohilla, Delhi NCT
73SSBShakur Basti  13:49+1713:51+192m--21048.750216mNRPitampura, Delhi NCT
74NNONangloiO  14:00+2114:02+232m--21056.262219mNRJJ Colony No 1, Delhi NCT
75BGZBahadurgarh  14:14+2414:16+252m--21068.640220mNRBahadurgarh, Haryana
76SPZSampla  14:43+2214:45+232m--21086.654222mNRSampla, Haryana
77ROKRohtak Junction (3)  15:10+2215:15+245m--21108.972220mNRRohtak, Haryana
78JNAJulana  15:41+2615:43+272m--21140.348226mNRJulana, Haryana
79JINDJind Junction (3)  16:15+2616:20+245m--21166.075222mNR126102., Haryana
80UCAUchana  16:35+2216:37+232m--21184.765225mNRDistrict Jind, Haryana
81NRWNarwana Junction (4)  16:51+2516:53+252m--21199.973235mNRWay to Narwana, Haryana
82TUNTohana (2)  17:14+2417:15+251m--21225.437232mNRTohana, Haryana
83JHLJakhal Junction  17:35+2217:40+215m--21237.678225mNRJakhal, Haryana
84BRZBareta  17:51+2117:53+212m--21251.871223mNRBareta, Punjab
85BLZBudhlada  18:06+2118:08+212m--21267.264223mNRBudhlada, Punjab
86MSZMansaX  18:23+1918:25+192m--21283.337222mNRMansa, Punjab
87KTKLKotli Kalan  18:39+518:41+52m--21291.9101219mNRState Highway 12A, Punjab
88MAURMaur  18:47+1618:49+162m--21302.035220mNRMaur Mandi, Punjab
89BTIBathinda Junction (6)  19:50+520:00+510m121337.567208mNRBathinda, Punjab
90GNAGoneana Bhai Jagta (3)  20:11+1220:13+132m121349.857206mNRGoniana, Punjab
91GJUTGangsar Jaitu (3)  20:28+1620:30+162m121364.049207mNRJaitu, Punjab
92KKPKot Kapura Junction (3)  20:50+1220:52+122m121380.3590mNRKotkapura, Punjab
93FDKFaridkot (3)  21:05+1621:07+202m121393.027202mNRFaridkot, Punjab
94FZR•Firozpur Cantt. Junction (5)•  22:20+6-121425.3-200mNRFirozpur Cantt 152001, Punjab
Scroll to Top
Scroll to Bottom